Cortlandt Manor, New York
Current Conditions -  °F | °C
As of 8:58 AM on Monday 22 Dec 2014 (Local Time) from KHPN Reporting Station
Overcast Overcast  
Wind Chill: 32°   Ceiling: 800
Heat Index: 36°   Visibility: 9mi
Dew Point: 34°   Wind: 5mph
Humidity: 93%   Direction: 70°ENE
Pressure: 30.31"   Gusts: NA
Location:  41.29°N, 73.89°W
Report Text: KHPN 221358Z 07004KT 9SM BKN008 OVC010 02/01 A3031 RMK AO2
Loading
Personal Weather Stations






























Interactive Weather Map New forecast layout! Learn more

10-Day Weather Forecast

Advertisements
Track Severe Weather on mobile